Historique des mesures à Cassis (13260), France
Quotidien Résumé Avril 20, 2017 Unités:  Métrique    US   Métrique/US
« Précédent (Jour)
Suivant (Jour) »
Quotidien Hebdomadaire Mensuel Annuel Période au choix
  Maximum: Minimum: Moyenne:
Température: TemperatureC °C 7.8 °C 12 °C
Point de rosée: DewpointC °C -3.3 °C 0 °C
Humidité: Humidity % 26 % 43 %
Vitesse du vent: 0 km/h 0 km/h 12.7 km/h
Rafales: 0 km/h - -
Vent:- - WSW
Pression: PressurehPa hPa 1019.5 hPa -
Précipitations: 0.0 mm    
Historical Graphs
 
 
Mesures pour : Avril 20, 2017
Heure Temperature Point de rosée Pression Vent Vitesse du vent Rafales Humidité Pluie (par heure) Conditions
TemperatureC °C DewpointC °C PressurehPa hPa Calm     Humidity % HourlyPrecipMM mm SoftwareType W/m2
00:11 10.6 °C 0.7 °C 1019.5 hPa Calm     50 % 0.0 mm open2300-1.11 W/m2
01:10 9.9 °C 1.0 °C 1020.5 hPa Calm     54 % 0.0 mm open2300-1.11 W/m2
02:10 8.8 °C 1.5 °C 1020.2 hPa NW 5.1 km/h 11.6 km/h 60 % 0.0 mm open2300-1.11 W/m2
03:11 8.2 °C 2.0 °C 1019.9 hPa NW 18.7 km/h 18.7 km/h 65 % 0.0 mm open2300-1.11 W/m2
04:10 8.0 °C 2.0 °C 1019.9 hPa NNE 6.4 km/h 18.7 km/h 66 % 0.0 mm open2300-1.11 W/m2
05:11 7.8 °C 2.1 °C 1020.2 hPa NNW 15.6 km/h 15.6 km/h 67 % 0.0 mm open2300-1.11 W/m2
06:11 7.8 °C 1.8 °C 1020.2 hPa WSW 5.1 km/h 5.1 km/h 66 % 0.0 mm open2300-1.11 W/m2
07:11 7.9 °C 0.8 °C 1020.9 hPa NNE 5.1 km/h 12.2 km/h 61 % 0.0 mm open2300-1.11 W/m2
08:10 9.8 °C 0.2 °C 1021.6 hPa NNE 8 km/h 9.8 km/h 51 % 0.0 mm open2300-1.11 W/m2
09:11 10.2 °C -0.7 °C 1021.9 hPa NNW 5.6 km/h 11.6 km/h 47 % 0.0 mm open2300-1.11 W/m2
10:11 11.8 °C -1.1 °C 1022.6 hPa NNW 8.9 km/h 9.3 km/h 41 % 0.0 mm open2300-1.11 W/m2
12:10 17.5 °C 1.8 °C 1023.2 hPa SSW 10.3 km/h 10.3 km/h 35 % 0.0 mm open2300-1.11 W/m2
13:11 18.1 °C 1.1 °C 1022.9 hPa SW 10.3 km/h 10.3 km/h 32 % 0.0 mm open2300-1.11 W/m2
14:11 18.4 °C 3.8 °C 1022.2 hPa SE 9.3 km/h 10.9 km/h 38 % 0.0 mm open2300-1.11 W/m2
15:11 17.3 °C -1.0 °C 1021.9 hPa NW 53.9 km/h 53.9 km/h 29 % 0.0 mm open2300-1.11 W/m2
16:10 16.5 °C -3.3 °C 1021.6 hPa NW 45.4 km/h 45.4 km/h 26 % 0.0 mm open2300-1.11 W/m2
17:11 16.9 °C -1.9 °C 1021.2 hPa NW 11.6 km/h 46.3 km/h 28 % 0.0 mm open2300-1.11 W/m2
18:11 16.2 °C -1.4 °C 1020.9 hPa NW 9.8 km/h 25.4 km/h 30 % 0.0 mm open2300-1.11 W/m2
19:10 15.5 °C -3.1 °C 1020.9 hPa NW 29 km/h 36.5 km/h 28 % 0.0 mm open2300-1.11 W/m2
20:11 14.5 °C -2.1 °C 1021.2 hPa WNW 2.9 km/h 2.9 km/h 32 % 0.0 mm open2300-1.11 W/m2
21:11 13.1 °C -1.0 °C 1021.6 hPa North 23 km/h 23 km/h 38 % 0.0 mm open2300-1.11 W/m2
22:11 12.8 °C -1.3 °C 1021.9 hPa West 5.1 km/h 5.1 km/h 38 % 0.0 mm open2300-1.11 W/m2
23:11 11.2 °C -1.6 °C 1021.9 hPa NNW 15.6 km/h 15.6 km/h 41 % 0.0 mm open2300-1.11 W/m2
Observations météo à CASSIS
WU-History script by Weather Underground - 1 mb